createdAt,value
2019-05-02T00:01:41.507Z,12.40
2019-05-02T00:04:12.407Z,12.50
2019-05-02T00:06:38.121Z,12.60
2019-05-02T00:09:09.159Z,12.70
2019-05-02T00:11:36.284Z,12.70
2019-05-02T00:14:03.631Z,12.60
2019-05-02T00:16:30.764Z,12.60
2019-05-02T00:18:57.483Z,12.60
2019-05-02T00:21:24.735Z,12.50
2019-05-02T00:23:51.483Z,12.50
2019-05-02T00:26:18.175Z,12.50
2019-05-02T00:28:47.925Z,12.50
2019-05-02T00:31:13.925Z,12.40
2019-05-02T00:33:40.860Z,12.50
2019-05-02T00:36:07.549Z,12.40
2019-05-02T00:38:38.331Z,12.40
2019-05-02T00:41:03.951Z,12.40
2019-05-02T00:43:34.595Z,12.40
2019-05-02T00:46:00.956Z,12.40
2019-05-02T00:48:39.560Z,12.30
2019-05-02T00:51:06.374Z,12.20
2019-05-02T00:53:33.197Z,12.30
2019-05-02T00:55:59.882Z,12.10
2019-05-02T00:58:27.311Z,12.10
2019-05-02T01:01:11.543Z,12.10
2019-05-02T01:03:40.726Z,12.10
2019-05-02T01:06:13.907Z,12.00
2019-05-02T01:08:36.977Z,12.00
2019-05-02T01:11:04.121Z,11.70
2019-05-02T01:13:31.089Z,11.80
2019-05-02T01:15:57.814Z,11.80
2019-05-02T01:18:24.926Z,11.70
2019-05-02T01:20:51.655Z,11.70
2019-05-02T01:23:22.927Z,11.80
2019-05-02T01:25:52.632Z,11.80
2019-05-02T01:28:34.884Z,11.80
2019-05-02T01:31:16.642Z,11.80
2019-05-02T01:33:45.891Z,11.70
2019-05-02T01:36:17.335Z,11.70
2019-05-02T01:38:46.384Z,11.60
2019-05-02T01:41:13.200Z,11.50
2019-05-02T01:43:40.092Z,11.60
2019-05-02T01:46:06.830Z,11.70
2019-05-02T01:48:33.725Z,11.60
2019-05-02T01:51:04.327Z,11.50
2019-05-02T01:53:34.146Z,11.40
2019-05-02T01:55:59.416Z,11.40
2019-05-02T01:58:26.298Z,11.50
2019-05-02T02:00:53.224Z,11.40
2019-05-02T02:03:20.059Z,11.50
2019-05-02T02:05:46.988Z,11.60
2019-05-02T02:08:13.808Z,11.60
2019-05-02T02:10:43.704Z,11.60
2019-05-02T02:13:09.536Z,11.50
2019-05-02T02:15:36.441Z,11.60
2019-05-02T02:18:03.567Z,11.60
2019-05-02T02:20:35.113Z,11.60
2019-05-02T02:23:29.263Z,11.70
2019-05-02T02:26:01.605Z,11.70
2019-05-02T02:28:31.997Z,11.80
2019-05-02T02:30:58.069Z,11.70
2019-05-02T02:33:25.925Z,11.60
2019-05-02T02:35:53.290Z,11.60
2019-05-02T02:38:19.985Z,11.50
2019-05-02T02:40:47.054Z,11.30
2019-05-02T02:43:32.959Z,11.20
2019-05-02T02:46:01.871Z,11.10
2019-05-02T02:48:34.059Z,11.10
2019-05-02T02:50:58.050Z,11.10
2019-05-02T02:53:30.659Z,10.90
2019-05-02T02:56:01.702Z,10.80
2019-05-02T02:58:28.312Z,10.80
2019-05-02T03:00:55.439Z,10.70
2019-05-02T03:03:27.799Z,10.70
2019-05-02T03:05:51.250Z,10.60
2019-05-02T03:08:18.241Z,10.60
2019-05-02T03:10:46.652Z,10.50
2019-05-02T03:13:51.394Z,10.50
2019-05-02T03:16:11.058Z,10.50
2019-05-02T03:18:40.790Z,10.60
2019-05-02T03:21:07.008Z,10.60
2019-05-02T03:23:34.705Z,10.60
2019-05-02T03:26:08.024Z,10.50
2019-05-02T03:28:30.992Z,10.40
2019-05-02T03:30:58.311Z,10.40
2019-05-02T03:33:25.186Z,10.50
2019-05-02T03:35:52.011Z,10.50
2019-05-02T03:38:31.659Z,10.50
2019-05-02T03:40:48.041Z,10.60
2019-05-02T03:43:19.055Z,10.50
2019-05-02T03:45:43.908Z,10.60
2019-05-02T03:48:11.106Z,10.50
2019-05-02T03:50:38.512Z,10.50
2019-05-02T03:53:05.495Z,10.40
2019-05-02T03:55:33.968Z,10.40
2019-05-02T03:58:13.121Z,10.40
2019-05-02T04:00:35.426Z,10.40
2019-05-02T04:03:02.936Z,10.50
2019-05-02T04:05:33.666Z,10.50
2019-05-02T04:07:59.097Z,10.60
2019-05-02T04:11:07.177Z,10.60
2019-05-02T04:13:36.302Z,10.50
2019-05-02T04:16:14.315Z,10.50
2019-05-02T04:18:33.441Z,10.50
2019-05-02T04:21:00.953Z,10.50
2019-05-02T04:23:29.863Z,10.60
2019-05-02T04:25:57.506Z,10.50
2019-05-02T04:28:24.176Z,10.50
2019-05-02T04:30:53.513Z,10.50
2019-05-02T04:33:20.020Z,10.50
2019-05-02T04:35:46.723Z,10.60
2019-05-02T04:38:20.068Z,10.60
2019-05-02T04:40:46.377Z,10.60
2019-05-02T04:43:11.645Z,10.70
2019-05-02T04:45:53.105Z,10.70
2019-05-02T04:48:08.556Z,10.80
2019-05-02T04:50:37.713Z,10.90
2019-05-02T04:53:04.165Z,10.90
2019-05-02T04:55:33.470Z,11.00
2019-05-02T04:58:01.806Z,11.00
2019-05-02T05:00:28.955Z,11.20
2019-05-02T05:02:58.031Z,11.30
2019-05-02T05:05:26.007Z,11.50
2019-05-02T05:07:53.444Z,11.50
2019-05-02T05:10:20.917Z,11.60
2019-05-02T05:12:47.999Z,11.80
2019-05-02T05:15:33.858Z,12.40
2019-05-02T05:17:44.144Z,12.50
2019-05-02T05:20:15.547Z,12.80
2019-05-02T05:22:44.186Z,13.60
2019-05-02T05:25:17.771Z,14.00
2019-05-02T05:27:42.833Z,14.40
2019-05-02T05:30:15.545Z,14.80
2019-05-02T05:32:38.668Z,15.00
2019-05-02T05:35:08.926Z,15.50
2019-05-02T05:37:34.840Z,15.10
2019-05-02T05:40:01.560Z,14.80
2019-05-02T05:45:08.512Z,15.10
2019-05-02T05:47:32.187Z,15.60
2019-05-02T05:50:00.981Z,15.70
2019-05-02T05:52:27.880Z,15.60
2019-05-02T05:54:54.855Z,16.00
2019-05-02T05:57:21.571Z,16.60
2019-05-02T05:59:48.636Z,17.30
2019-05-02T06:02:15.480Z,17.70
2019-05-02T06:04:42.514Z,18.90
2019-05-02T06:07:09.326Z,19.20
2019-05-02T06:09:36.042Z,20.10
2019-05-02T06:12:03.423Z,20.10
2019-05-02T06:14:30.113Z,20.50
2019-05-02T06:16:56.822Z,20.40
2019-05-02T06:19:23.531Z,20.50
2019-05-02T06:21:50.713Z,19.80
2019-05-02T06:24:17.420Z,20.20
2019-05-02T06:26:44.781Z,19.80
2019-05-02T06:29:18.406Z,20.00
2019-05-02T06:31:43.015Z,19.90
2019-05-02T06:34:10.224Z,18.40
2019-05-02T06:36:38.071Z,18.40
2019-05-02T06:39:05.233Z,17.60
2019-05-02T06:41:31.926Z,18.40
2019-05-02T06:43:58.884Z,18.50
2019-05-02T06:46:27.777Z,17.50
2019-05-02T06:48:54.541Z,18.10
2019-05-02T06:51:21.272Z,18.20
2019-05-02T06:53:48.967Z,17.80
2019-05-02T06:56:16.517Z,17.50
2019-05-02T06:58:43.364Z,18.50
2019-05-02T07:01:10.482Z,17.90
2019-05-02T07:03:41.419Z,17.70
2019-05-02T07:06:07.681Z,17.80
2019-05-02T07:08:34.992Z,17.30
2019-05-02T07:11:03.174Z,16.40
2019-05-02T07:13:31.472Z,17.00
2019-05-02T07:16:10.520Z,17.40
2019-05-02T07:18:47.070Z,17.40
2019-05-02T07:21:12.111Z,17.10
2019-05-02T07:23:39.715Z,17.80
2019-05-02T07:26:06.549Z,17.60
2019-05-02T07:28:33.317Z,17.80
2019-05-02T07:31:00.563Z,18.20
2019-05-02T07:33:32.271Z,20.90
2019-05-02T07:36:00.070Z,22.80
2019-05-02T07:38:27.432Z,23.40
2019-05-02T07:40:54.350Z,23.00
2019-05-02T07:43:22.351Z,22.60
2019-05-02T07:45:49.169Z,22.30
2019-05-02T07:48:17.722Z,21.90
2019-05-02T07:50:46.452Z,22.60
2019-05-02T07:53:14.299Z,22.60
2019-05-02T07:55:42.751Z,21.90
2019-05-02T07:58:09.812Z,22.70
2019-05-02T08:00:38.345Z,23.50
2019-05-02T08:03:05.387Z,24.50
2019-05-02T08:05:32.060Z,26.50
2019-05-02T08:07:58.788Z,25.40
2019-05-02T08:10:25.963Z,24.60
2019-05-02T08:12:52.651Z,24.10
2019-05-02T08:15:20.156Z,24.60
2019-05-02T08:17:53.207Z,25.30
2019-05-02T08:20:18.997Z,25.30
2019-05-02T08:22:49.044Z,26.00
2019-05-02T08:25:13.375Z,26.00
2019-05-02T08:27:51.347Z,24.20
2019-05-02T08:30:23.052Z,22.60
2019-05-02T08:32:49.735Z,22.30
2019-05-02T08:35:16.588Z,22.00
2019-05-02T08:37:43.286Z,22.00
2019-05-02T08:40:11.042Z,22.60
2019-05-02T08:42:39.016Z,23.80
2019-05-02T08:45:06.226Z,23.40
2019-05-02T08:47:33.191Z,24.50
2019-05-02T08:50:00.095Z,24.40
2019-05-02T08:52:27.171Z,23.30
2019-05-02T08:54:54.163Z,22.50
2019-05-02T08:57:23.628Z,23.20
2019-05-02T08:59:49.535Z,23.10
2019-05-02T09:02:16.261Z,24.00
2019-05-02T09:04:43.060Z,25.40
2019-05-02T09:07:10.009Z,26.20
2019-05-02T09:09:36.808Z,25.60
2019-05-02T09:12:12.136Z,26.40
2019-05-02T09:14:32.671Z,26.60
2019-05-02T09:17:00.138Z,25.30
2019-05-02T09:19:31.673Z,24.40
2019-05-02T09:21:57.504Z,23.60
2019-05-02T09:24:24.449Z,22.60
2019-05-02T09:26:51.978Z,21.60
2019-05-02T09:29:19.257Z,20.60
2019-05-02T09:31:46.271Z,20.40
2019-05-02T09:34:17.050Z,20.40
2019-05-02T09:36:42.004Z,20.30
2019-05-02T09:39:08.995Z,20.80
2019-05-02T09:41:36.379Z,21.20
2019-05-02T09:44:03.560Z,21.70
2019-05-02T09:46:32.493Z,21.30
2019-05-02T09:49:02.892Z,20.70
2019-05-02T09:51:27.925Z,21.00
2019-05-02T09:53:57.159Z,21.00
2019-05-02T09:56:26.329Z,21.20
2019-05-02T09:58:55.069Z,21.00
2019-05-02T10:01:33.034Z,20.60
2019-05-02T10:03:59.750Z,20.70
2019-05-02T10:06:27.027Z,20.80
2019-05-02T10:08:53.942Z,21.00
2019-05-02T10:11:22.487Z,21.40
2019-05-02T10:13:51.732Z,21.30
2019-05-02T10:16:23.568Z,21.40
2019-05-02T10:18:47.412Z,21.60
2019-05-02T10:21:17.139Z,21.60
2019-05-02T10:23:42.829Z,22.10
2019-05-02T10:26:14.659Z,22.40
2019-05-02T10:28:41.843Z,22.20
2019-05-02T10:31:07.964Z,21.90
2019-05-02T10:33:37.616Z,21.30
2019-05-02T10:36:04.012Z,21.30
2019-05-02T10:38:32.570Z,21.80
2019-05-02T10:41:02.638Z,22.40
2019-05-02T10:43:28.834Z,22.70
2019-05-02T10:46:01.815Z,23.00
2019-05-02T10:48:29.267Z,23.20
2019-05-02T10:51:15.879Z,23.10
2019-05-02T10:53:46.978Z,23.30
2019-05-02T10:56:11.819Z,23.20
2019-05-02T10:58:38.740Z,23.20
2019-05-02T11:01:06.758Z,23.40
2019-05-02T11:03:43.031Z,23.60
2019-05-02T11:06:07.820Z,23.90
2019-05-02T11:08:36.688Z,23.70
2019-05-02T11:11:06.278Z,23.10
2019-05-02T11:13:42.491Z,22.90
2019-05-02T11:16:47.259Z,23.10
2019-05-02T11:19:24.430Z,23.50
2019-05-02T11:21:56.418Z,23.80
2019-05-02T11:24:19.840Z,22.40
2019-05-02T11:26:52.809Z,22.70
2019-05-02T11:29:24.008Z,23.10
2019-05-02T11:31:57.686Z,22.70
2019-05-02T11:34:41.972Z,22.70
2019-05-02T11:37:18.724Z,22.40
2019-05-02T11:39:51.483Z,22.70
2019-05-02T11:42:17.662Z,22.90
2019-05-02T11:44:43.188Z,23.20
2019-05-02T11:47:09.892Z,23.40
2019-05-02T11:49:36.856Z,23.60
2019-05-02T11:52:04.754Z,23.50
2019-05-02T11:54:32.066Z,23.30
2019-05-02T11:56:59.256Z,23.40
2019-05-02T11:59:28.207Z,23.20
2019-05-02T12:02:03.365Z,22.80
2019-05-02T12:04:32.448Z,22.50
2019-05-02T12:07:01.221Z,22.40
2019-05-02T12:09:28.099Z,22.70
2019-05-02T12:11:56.681Z,22.80
2019-05-02T12:14:27.423Z,21.80
2019-05-02T12:16:52.823Z,22.40
2019-05-02T12:19:19.884Z,22.60
2019-05-02T12:21:53.019Z,22.80
2019-05-02T12:24:19.735Z,22.60
2019-05-02T12:26:46.706Z,22.80
2019-05-02T12:29:13.683Z,23.00
2019-05-02T12:31:42.524Z,22.80
2019-05-02T12:34:09.160Z,22.80
2019-05-02T12:36:36.231Z,22.80
2019-05-02T12:39:04.935Z,22.70
2019-05-02T12:41:33.143Z,22.80
2019-05-02T12:44:02.081Z,22.70
2019-05-02T12:46:28.783Z,22.50
2019-05-02T12:48:55.489Z,22.60
2019-05-02T12:51:22.669Z,22.80
2019-05-02T12:53:49.444Z,23.20
2019-05-02T12:56:16.178Z,23.40
2019-05-02T12:58:43.212Z,23.70
2019-05-02T13:01:12.205Z,23.70
2019-05-02T13:03:46.697Z,23.70
2019-05-02T13:06:13.697Z,23.80
2019-05-02T13:08:49.093Z,23.60
2019-05-02T13:11:24.628Z,23.50
2019-05-02T13:13:53.339Z,23.40
2019-05-02T13:16:22.549Z,22.20
2019-05-02T13:18:49.391Z,22.00
2019-05-02T13:21:23.337Z,22.30
2019-05-02T13:23:55.507Z,23.00
2019-05-02T13:26:26.994Z,22.30
2019-05-02T13:28:51.698Z,21.70
2019-05-02T13:31:27.138Z,21.80
2019-05-02T13:34:14.725Z,21.80
2019-05-02T13:36:43.871Z,22.00
2019-05-02T13:39:19.365Z,22.60
2019-05-02T13:41:46.281Z,22.80
2019-05-02T13:44:16.277Z,23.60
2019-05-02T13:46:43.297Z,23.50
2019-05-02T13:49:10.292Z,23.40
2019-05-02T13:51:37.091Z,23.60
2019-05-02T13:54:04.195Z,23.40
2019-05-02T13:56:52.868Z,22.60
2019-05-02T13:59:22.212Z,22.20
2019-05-02T14:01:52.122Z,21.50
2019-05-02T14:04:19.332Z,21.30
2019-05-02T14:06:46.135Z,21.50
2019-05-02T14:09:28.464Z,21.10
2019-05-02T14:12:03.608Z,21.50
2019-05-02T14:14:32.461Z,21.80
2019-05-02T14:16:59.191Z,21.20
2019-05-02T14:19:26.274Z,21.00
2019-05-02T14:21:53.001Z,21.00
2019-05-02T14:24:23.077Z,20.90
2019-05-02T14:26:52.399Z,21.00
2019-05-02T14:29:19.220Z,20.90
2019-05-02T14:31:46.225Z,21.10
2019-05-02T14:34:38.339Z,21.10
2019-05-02T14:37:05.163Z,21.60
2019-05-02T14:39:32.592Z,21.70
2019-05-02T14:41:59.381Z,21.60
2019-05-02T14:44:36.236Z,20.60
2019-05-02T14:46:54.934Z,20.50
2019-05-02T14:49:25.426Z,20.50
2019-05-02T14:51:52.385Z,20.40
2019-05-02T14:54:19.198Z,20.30
2019-05-02T14:56:52.150Z,20.50
2019-05-02T14:59:20.132Z,20.80
2019-05-02T15:01:52.736Z,21.00
2019-05-02T15:04:20.052Z,21.30
2019-05-02T15:06:47.557Z,21.30
2019-05-02T15:09:16.803Z,21.10
2019-05-02T15:12:13.527Z,21.00
2019-05-02T15:14:33.530Z,20.90
2019-05-02T15:17:02.514Z,20.50
2019-05-02T15:19:29.607Z,20.80
2019-05-02T15:21:56.415Z,21.00
2019-05-02T15:24:23.200Z,21.10
2019-05-02T15:26:50.049Z,20.70
2019-05-02T15:29:19.630Z,20.50
2019-05-02T15:31:52.793Z,20.40
2019-05-02T15:34:26.157Z,20.00
2019-05-02T15:36:52.877Z,19.80
2019-05-02T15:41:48.708Z,19.50
2019-05-02T15:44:18.964Z,19.20
2019-05-02T15:46:44.657Z,19.20
2019-05-02T15:49:12.308Z,19.30
2019-05-02T15:51:43.683Z,19.70
2019-05-02T15:54:08.940Z,19.90
2019-05-02T15:56:52.270Z,19.80
2019-05-02T15:59:32.433Z,20.10
2019-05-02T16:02:06.986Z,20.20
2019-05-02T16:04:35.527Z,20.20
2019-05-02T16:07:06.931Z,20.00
2019-05-02T16:09:32.891Z,20.00
2019-05-02T16:12:00.166Z,19.90
2019-05-02T16:14:31.356Z,19.70
2019-05-02T16:16:55.679Z,19.60
2019-05-02T16:19:28.771Z,19.50
2019-05-02T16:21:59.513Z,19.20
2019-05-02T16:24:24.831Z,19.20
2019-05-02T16:26:53.142Z,18.90
2019-05-02T16:29:26.809Z,18.90
2019-05-02T16:31:59.706Z,19.00
2019-05-02T16:34:27.458Z,19.10
2019-05-02T16:37:13.621Z,19.00
2019-05-02T16:39:36.337Z,19.00
2019-05-02T16:42:04.761Z,18.90
2019-05-02T16:44:32.270Z,18.80
2019-05-02T16:46:59.080Z,18.70
2019-05-02T16:49:25.817Z,18.50
2019-05-02T16:51:52.965Z,18.50
2019-05-02T16:54:19.833Z,18.70
2019-05-02T16:56:46.861Z,18.70
2019-05-02T16:59:16.968Z,18.30
2019-05-02T17:01:42.562Z,18.00
2019-05-02T17:04:09.337Z,17.80
2019-05-02T17:06:37.749Z,17.80
2019-05-02T17:09:21.764Z,17.80
2019-05-02T17:11:49.223Z,17.90
2019-05-02T17:14:15.959Z,18.00
2019-05-02T17:16:47.073Z,17.70
2019-05-02T17:19:12.290Z,17.80
2019-05-02T17:21:52.865Z,17.80
2019-05-02T17:24:08.252Z,17.70
2019-05-02T17:26:35.195Z,17.70
2019-05-02T17:29:02.503Z,18.00
2019-05-02T17:31:29.280Z,17.90
2019-05-02T17:33:56.134Z,17.90
2019-05-02T17:36:28.629Z,17.70
2019-05-02T17:38:54.219Z,17.70
2019-05-02T17:41:20.283Z,17.50
2019-05-02T17:43:49.040Z,17.30
2019-05-02T17:46:18.345Z,17.30
2019-05-02T17:48:47.716Z,17.40
2019-05-02T17:51:37.741Z,17.40
2019-05-02T17:54:03.115Z,17.50
2019-05-02T17:56:32.429Z,17.40
2019-05-02T17:58:58.825Z,17.20
2019-05-02T18:01:35.804Z,17.10
2019-05-02T18:04:06.984Z,17.10
2019-05-02T18:06:35.315Z,17.00
2019-05-02T18:09:00.116Z,16.90
2019-05-02T18:11:29.546Z,16.80
2019-05-02T18:13:55.616Z,16.60
2019-05-02T18:16:22.356Z,16.40
2019-05-02T18:18:49.233Z,16.30
2019-05-02T18:21:17.700Z,16.20
2019-05-02T18:23:44.693Z,16.10
2019-05-02T18:26:11.568Z,16.00
2019-05-02T18:28:47.039Z,16.00
2019-05-02T18:31:06.983Z,16.00
2019-05-02T18:33:35.954Z,15.90
2019-05-02T18:36:03.546Z,15.80
2019-05-02T18:38:30.240Z,15.80
2019-05-02T18:41:00.269Z,15.70
2019-05-02T18:43:26.127Z,15.60
2019-05-02T18:45:52.846Z,15.60
2019-05-02T18:48:21.859Z,15.60
2019-05-02T18:50:50.143Z,15.60
2019-05-02T18:53:18.693Z,15.40
2019-05-02T18:55:46.483Z,15.30
2019-05-02T18:58:13.611Z,15.00
2019-05-02T19:00:42.078Z,14.70
2019-05-02T19:03:15.134Z,14.50
2019-05-02T19:05:38.622Z,14.30
2019-05-02T19:08:05.912Z,14.20
2019-05-02T19:10:32.648Z,14.10
2019-05-02T19:13:00.972Z,13.90
2019-05-02T19:15:28.327Z,13.80
2019-05-02T19:17:55.350Z,13.80
2019-05-02T19:21:06.592Z,13.70
2019-05-02T19:23:34.514Z,13.60
2019-05-02T19:26:09.660Z,13.40
2019-05-02T19:28:38.344Z,13.30
2019-05-02T19:31:06.823Z,13.30
2019-05-02T19:33:37.303Z,13.30
2019-05-02T19:36:02.957Z,13.10
2019-05-02T19:38:32.298Z,13.00
2019-05-02T19:41:05.574Z,13.10
2019-05-02T19:43:27.211Z,13.00
2019-05-02T19:45:56.236Z,12.90
2019-05-02T19:48:27.436Z,12.80
2019-05-02T19:51:05.398Z,12.80
2019-05-02T19:53:35.901Z,12.80
2019-05-02T19:56:08.834Z,12.70
2019-05-02T19:58:42.639Z,12.60
2019-05-02T20:01:08.503Z,12.60
2019-05-02T20:03:52.057Z,12.60
2019-05-02T20:06:30.040Z,12.70
2019-05-02T20:09:23.240Z,12.70
2019-05-02T20:11:56.355Z,12.70
2019-05-02T20:14:23.336Z,12.60
2019-05-02T20:16:52.994Z,12.70
2019-05-02T20:19:23.261Z,12.70
2019-05-02T20:22:06.600Z,12.70
2019-05-02T20:24:55.435Z,12.70
2019-05-02T20:27:22.438Z,12.60
2019-05-02T20:29:49.650Z,12.50
2019-05-02T20:32:16.468Z,12.60
2019-05-02T20:34:43.301Z,12.50
2019-05-02T20:37:10.319Z,12.60
2019-05-02T20:39:37.105Z,12.60
2019-05-02T20:42:03.949Z,12.60
2019-05-02T20:44:32.104Z,12.50
2019-05-02T20:46:59.204Z,12.50
2019-05-02T20:49:26.288Z,12.40
2019-05-02T20:51:53.004Z,12.30
2019-05-02T20:54:19.705Z,12.20
2019-05-02T20:56:46.926Z,12.20
2019-05-02T20:59:13.741Z,12.20
2019-05-02T21:01:42.704Z,12.30
2019-05-02T21:04:09.178Z,12.40
2019-05-02T21:06:55.545Z,12.40
2019-05-02T21:09:38.953Z,12.10
2019-05-02T21:12:06.548Z,12.10
2019-05-02T21:14:33.490Z,11.90
2019-05-02T21:17:02.034Z,11.90
2019-05-02T21:19:29.012Z,11.90
2019-05-02T21:21:58.225Z,11.80
2019-05-02T21:24:25.380Z,11.80
2019-05-02T21:26:52.626Z,11.80
2019-05-02T21:29:19.385Z,11.90
2019-05-02T21:31:46.112Z,11.90
2019-05-02T21:34:12.801Z,11.80
2019-05-02T21:36:39.941Z,11.80
2019-05-02T21:39:11.876Z,11.80
2019-05-02T21:41:38.860Z,11.70
2019-05-02T21:44:05.894Z,11.80
2019-05-02T21:46:32.840Z,11.80
2019-05-02T21:48:59.537Z,11.80
2019-05-02T21:51:36.861Z,12.00
2019-05-02T21:54:17.484Z,12.10
2019-05-02T21:56:52.203Z,12.20
2019-05-02T21:59:19.087Z,12.20
2019-05-02T22:01:49.144Z,12.20
2019-05-02T22:04:16.420Z,12.30
2019-05-02T22:06:43.319Z,12.30
2019-05-02T22:09:12.221Z,12.40
2019-05-02T22:11:39.654Z,12.40
2019-05-02T22:14:06.483Z,12.30
2019-05-02T22:16:33.300Z,12.30
2019-05-02T22:19:02.692Z,12.40
2019-05-02T22:21:29.320Z,12.40
2019-05-02T22:24:08.238Z,12.30
2019-05-02T22:26:24.792Z,12.30
2019-05-02T22:28:53.627Z,12.40
2019-05-02T22:31:20.322Z,12.30
2019-05-02T22:33:47.566Z,12.30
2019-05-02T22:36:14.604Z,12.20
2019-05-02T22:38:55.089Z,12.30
2019-05-02T22:41:22.182Z,12.40
2019-05-02T22:43:49.428Z,12.40
2019-05-02T22:46:35.807Z,12.30
2019-05-02T22:49:02.725Z,12.20
2019-05-02T22:51:29.444Z,12.10
2019-05-02T22:53:56.129Z,12.20
2019-05-02T22:56:23.212Z,12.30
2019-05-02T22:58:51.532Z,12.30
2019-05-02T23:01:18.595Z,12.20
2019-05-02T23:03:45.316Z,12.20
2019-05-02T23:06:12.542Z,12.10
2019-05-02T23:08:43.354Z,12.00
2019-05-02T23:11:08.997Z,12.00
2019-05-02T23:13:35.809Z,11.90
2019-05-02T23:16:02.976Z,12.00
2019-05-02T23:18:31.623Z,12.00
2019-05-02T23:20:58.380Z,11.90
2019-05-02T23:23:25.088Z,12.10
2019-05-02T23:26:09.160Z,12.20
2019-05-02T23:28:37.435Z,12.20
2019-05-02T23:31:04.344Z,12.30
2019-05-02T23:33:51.482Z,12.30
2019-05-02T23:36:18.257Z,12.40
2019-05-02T23:38:45.251Z,12.50
2019-05-02T23:41:12.603Z,12.50
2019-05-02T23:43:41.626Z,12.50
2019-05-02T23:46:08.551Z,12.60
2019-05-02T23:48:35.415Z,12.70
2019-05-02T23:51:02.698Z,12.60
2019-05-02T23:53:31.473Z,12.50
2019-05-02T23:55:58.152Z,12.60
2019-05-02T23:58:25.317Z,12.70
